Etusivu
METAR-TAF:

METAR-TAF

Lentoasemat :

Calhoun, Georgia, Yhdysvallat

Leveyspiiri: 34-27-20N, Pituuspiiri: 084-56-21W, korkeus merenpinnasta: 198 m

Tämänhetkinen sää

Tämä raportti tehtiin 18 minuuttia sitten, kello 10.15 UTC
Tuuli 3 kn lounaasta
Lämpötila 7°C
Kosteus 93%
Ilmanpaine 1019 hPa
Näkyvyys: 16.1 km
Pilvistä 6000 ft:n korkeudessa
heikkoa sadetta

METAR: KCZL 241015Z AUTO 22003KT 10SM -RA OVC060 07/06 A3010 RMK AO2

Aika: 05:33 (10:33 UTC)


TAF: puuttuu

Säähavainnot ja -ennusteet yli 4000 lentoasemalta (METAR- ja TAF-raportit).

Käytössä olevat sääasemat on merkitty karttaan keltaisilla ja punaisilla pisteillä.

Aseta hiiri pisteen päälle nähdäksesi sääaseman nimen.

Klikkaa sitten nähdäksesi säähavainnot ja -ennusteet.

Kartan vaihtaminen: klikkaa mustalla rastilla varustettuja vihreitä pisteitä, niin voit zoomata sisään; viivalla varustettua vihreää pistettä, niin voit zoomata ulos tai vihreitä nuolia, niin pääset viereisille kartoille.


METAR-TAF: